East Smethport, Pennsylvania
Current Conditions -  °F | °C
As of 3:53 AM on Monday 20 Oct 2014 (Local Time) from KBFD Reporting Station
Broken Clouds Broken Clouds  
Wind Chill: 38°   Ceiling: 10000
Heat Index: 38°   Visibility: 10mi
Dew Point: 30°   Wind: 3mph
Humidity: 73%   Direction: NA
Pressure: 30"   Gusts: NA
Location:  41.81°N, 78.42°W
Report Text: KBFD 200753Z AUTO VRB03KT 10SM BKN100 03/M01 A3000 RMK AO2 SLP167 T00331011
Loading
Personal Weather Stations






























Interactive Weather Map
Tropical Storm Tracking
New forecast layout! Learn more

10-Day Weather Forecast

Advertisements
Track Severe Weather on mobile